Time;durP1;ratioP1;P1;durP2;ratioP2;P2;SDS_P1;SDS_P2;PMS_P1;PMS_P2;Temp;Humidity;BMP_temperature;BMP_pressure;BME280_temperature;BME280_humidity;BME280_pressure;Samples;Min_cycle;Max_cycle;Signal;HPM_P1;HPM_P2
2023/07/05 00:00:19;;;;;;;3.50;3.20;;;18.20;99.90;;;;;;5052291;28;20253;-68
2023/07/05 00:02:45;;;;;;;4.60;3.40;;;18.30;99.90;;;;;;5052257;28;20696;-68
2023/07/05 00:05:11;;;;;;;3.37;2.50;;;18.30;99.90;;;;;;5051879;28;20224;-68
2023/07/05 00:07:37;;;;;;;5.47;4.00;;;18.30;99.90;;;;;;5051928;28;20837;-69
2023/07/05 00:10:03;;;;;;;2.80;2.60;;;18.30;99.90;;;;;;5052159;28;20501;-68
2023/07/05 00:12:29;;;;;;;4.00;3.20;;;18.30;99.90;;;;;;5052135;28;20766;-69
2023/07/05 00:14:54;;;;;;;4.20;2.80;;;18.20;99.90;;;;;;5051970;28;20177;-70
2023/07/05 00:17:20;;;;;;;4.57;3.10;;;18.20;99.90;;;;;;5051898;28;20232;-68
2023/07/05 00:19:50;;;;;;;4.00;3.40;;;18.20;99.90;;;;;;5052042;28;20167;-68
2023/07/05 00:22:15;;;;;;;4.33;3.73;;;18.10;99.90;;;;;;5052108;28;20170;-69
2023/07/05 00:24:41;;;;;;;6.23;3.27;;;18.20;99.90;;;;;;5052007;28;20408;-68
2023/07/05 00:27:06;;;;;;;3.43;2.90;;;18.20;99.90;;;;;;5051735;28;20191;-68
2023/07/05 00:29:32;;;;;;;3.83;2.73;;;18.10;99.90;;;;;;5050579;28;20190;-69
2023/07/05 00:31:57;;;;;;;10.27;3.00;;;18.10;99.90;;;;;;5051933;28;20524;-68
2023/07/05 00:34:23;;;;;;;3.63;2.70;;;18.20;99.90;;;;;;5051760;28;20229;-69
2023/07/05 00:36:49;;;;;;;3.90;2.60;;;18.10;99.90;;;;;;5051553;28;20185;-69
2023/07/05 00:39:14;;;;;;;5.50;3.00;;;18.00;99.90;;;;;;5051886;28;20177;-69
2023/07/05 00:41:40;;;;;;;4.77;3.37;;;18.10;99.90;;;;;;5051801;28;20574;-68
2023/07/05 00:44:05;;;;;;;5.70;3.47;;;18.20;99.90;;;;;;5051699;28;20163;-68
2023/07/05 00:46:33;;;;;;;5.60;3.33;;;18.20;99.90;;;;;;5051057;28;20170;-68
2023/07/05 00:49:03;;;;;;;5.63;3.10;;;18.10;99.90;;;;;;5051652;28;20225;-69
2023/07/05 00:51:47;;;;;;;4.27;3.17;;;18.00;99.90;;;;;;5051822;28;20424;-69
2023/07/05 00:54:14;;;;;;;4.50;2.90;;;18.00;99.90;;;;;;5051825;28;20812;-69
2023/07/05 00:56:49;;;;;;;4.30;2.20;;;18.00;99.90;;;;;;5051178;28;20475;-68
2023/07/05 00:59:15;;;;;;;3.73;2.83;;;18.00;99.90;;;;;;5051646;28;20400;-68
2023/07/05 01:01:41;;;;;;;4.67;3.20;;;17.90;99.90;;;;;;5054773;28;20452;-69
2023/07/05 01:04:07;;;;;;;3.83;2.47;;;17.90;99.90;;;;;;5055606;28;20774;-68
2023/07/05 01:06:33;;;;;;;4.00;2.70;;;18.00;99.90;;;;;;5054838;28;20461;-69
2023/07/05 01:08:59;;;;;;;7.00;2.80;;;17.90;99.90;;;;;;5055492;28;20489;-68
2023/07/05 01:11:55;;;;;;;4.20;2.20;;;17.90;99.90;;;;;;5055536;28;20174;-68
2023/07/05 01:14:26;;;;;;;4.23;2.60;;;17.90;99.90;;;;;;5055459;28;20762;-69
2023/07/05 01:17:07;;;;;;;3.20;2.40;;;17.80;99.90;;;;;;5054832;28;20498;-70
2023/07/05 01:19:57;;;;;;;2.50;2.07;;;17.80;99.90;;;;;;5055259;28;20902;-69
2023/07/05 01:22:42;;;;;;;3.00;1.77;;;17.80;99.90;;;;;;5055354;28;20462;-69
2023/07/05 01:25:38;;;;;;;2.37;1.60;;;17.80;99.90;;;;;;5054959;28;20405;-69
2023/07/05 01:28:32;;;;;;;3.67;1.97;;;17.90;99.90;;;;;;5051946;28;20843;-68
2023/07/05 01:31:30;;;;;;;2.33;2.13;;;17.80;99.90;;;;;;5054936;28;20449;-69
2023/07/05 01:34:21;;;;;;;2.40;1.50;;;17.80;99.90;;;;;;5055097;28;20511;-68
2023/07/05 01:36:47;;;;;;;2.57;1.97;;;17.90;99.90;;;;;;5054692;28;20459;-69
2023/07/05 01:39:13;;;;;;;5.57;2.03;;;18.00;99.90;;;;;;5054789;28;20409;-69
2023/07/05 01:41:38;;;;;;;3.60;2.90;;;18.00;99.90;;;;;;5054750;28;20414;-69
2023/07/05 01:44:05;;;;;;;3.27;1.80;;;18.00;99.90;;;;;;5054875;28;20178;-69
2023/07/05 01:46:43;;;;;;;2.80;1.60;;;17.90;99.90;;;;;;5054442;28;20159;-70
2023/07/05 01:49:27;;;;;;;2.77;1.80;;;17.80;99.90;;;;;;5054654;28;20460;-68
2023/07/05 01:52:02;;;;;;;2.37;1.73;;;17.90;99.90;;;;;;5054818;28;20412;-70
2023/07/05 01:54:34;;;;;;;2.77;2.27;;;17.90;99.90;;;;;;5054676;28;20412;-69
2023/07/05 01:57:04;;;;;;;4.13;2.00;;;17.90;99.90;;;;;;5054346;28;20420;-68
2023/07/05 01:59:55;;;;;;;2.20;1.83;;;17.90;99.90;;;;;;5053222;28;20413;-69
2023/07/05 02:02:28;;;;;;;2.10;1.90;;;18.00;99.90;;;;;;5044039;28;21079;-69
2023/07/05 02:04:54;;;;;;;3.00;1.40;;;18.00;99.90;;;;;;5054340;28;20813;-68
2023/07/05 02:07:28;;;;;;;3.20;1.70;;;18.10;99.90;;;;;;5054315;28;20466;-72
2023/07/05 02:09:55;;;;;;;5.83;2.37;;;18.10;99.90;;;;;;5054218;28;20473;-70
2023/07/05 02:12:21;;;;;;;6.57;1.77;;;18.00;99.90;;;;;;5053330;28;20405;-68
2023/07/05 02:14:48;;;;;;;1.33;1.20;;;18.00;99.90;;;;;;5054336;28;20425;-69
2023/07/05 02:17:14;;;;;;;3.10;1.73;;;18.00;99.90;;;;;;5053671;28;20867;-70
2023/07/05 02:19:40;;;;;;;3.37;1.77;;;17.90;99.90;;;;;;5054216;28;20632;-69
2023/07/05 02:22:06;;;;;;;2.50;1.90;;;17.90;99.90;;;;;;5054114;28;20401;-69
2023/07/05 02:24:31;;;;;;;2.03;1.93;;;17.90;99.90;;;;;;5054103;28;20175;-68
2023/07/05 02:26:57;;;;;;;4.30;1.90;;;17.80;99.90;;;;;;5053771;28;20191;-69
2023/07/05 02:29:23;;;;;;;4.93;1.90;;;17.90;99.90;;;;;;5054032;28;20222;-69
2023/07/05 02:31:49;;;;;;;3.33;1.80;;;17.80;99.90;;;;;;5053982;28;20159;-69
2023/07/05 02:34:14;;;;;;;2.00;1.80;;;17.80;99.90;;;;;;5053875;28;20171;-68
2023/07/05 02:36:40;;;;;;;2.80;2.13;;;17.70;99.90;;;;;;5053714;28;20449;-68
2023/07/05 02:39:05;;;;;;;6.37;1.63;;;17.70;99.90;;;;;;5053760;28;20179;-67
2023/07/05 02:41:31;;;;;;;2.00;1.77;;;17.70;99.90;;;;;;5053797;28;20171;-67
2023/07/05 02:43:57;;;;;;;2.70;1.70;;;17.70;99.90;;;;;;5053603;28;20695;-68
2023/07/05 02:46:25;;;;;;;3.03;2.20;;;17.60;99.90;;;;;;5053332;28;20167;-68
2023/07/05 02:48:51;;;;;;;2.00;1.50;;;17.60;99.90;;;;;;5053539;28;20451;-67
2023/07/05 02:51:17;;;;;;;1.80;1.50;;;17.50;99.90;;;;;;5053594;28;20405;-67
2023/07/05 02:53:42;;;;;;;1.70;1.60;;;17.50;99.90;;;;;;5053535;28;20416;-68
2023/07/05 02:56:08;;;;;;;2.17;1.53;;;17.40;99.90;;;;;;5053255;28;20172;-67
2023/07/05 02:58:33;;;;;;;6.00;1.43;;;17.40;99.90;;;;;;5053623;28;20652;-67
2023/07/05 03:00:59;;;;;;;1.77;1.40;;;17.30;99.90;;;;;;5053162;28;20518;-68
2023/07/05 03:03:26;;;;;;;1.33;1.10;;;17.40;99.90;;;;;;5052976;28;20181;-69
2023/07/05 03:05:56;;;;;;;3.70;1.40;;;17.30;99.90;;;;;;5053124;28;20258;-70
2023/07/05 03:08:21;;;;;;;1.50;1.20;;;17.20;99.90;;;;;;5052473;28;20452;-70
2023/07/05 03:10:47;;;;;;;2.07;1.43;;;17.20;99.90;;;;;;5051909;28;20461;-68
2023/07/05 03:13:12;;;;;;;2.23;1.20;;;17.20;99.90;;;;;;5052046;28;20185;-69
2023/07/05 03:15:38;;;;;;;3.63;1.73;;;17.20;99.90;;;;;;5051889;28;20539;-69
2023/07/05 03:18:03;;;;;;;2.50;1.27;;;17.10;99.90;;;;;;5051913;28;20193;-70
2023/07/05 03:20:29;;;;;;;1.20;1.10;;;17.00;99.90;;;;;;5052104;28;20166;-71
2023/07/05 03:22:55;;;;;;;1.50;1.00;;;16.90;99.90;;;;;;5052716;28;20174;-70
2023/07/05 03:25:20;;;;;;;1.60;1.00;;;16.80;99.90;;;;;;5052552;28;20635;-69
2023/07/05 03:27:46;;;;;;;2.07;1.23;;;16.90;99.90;;;;;;5052136;28;20205;-69
2023/07/05 03:30:11;;;;;;;1.63;1.30;;;16.90;99.90;;;;;;5052805;28;20291;-69
2023/07/05 03:32:39;;;;;;;2.17;1.40;;;16.80;99.90;;;;;;5052850;28;20615;-69
2023/07/05 03:35:05;;;;;;;3.63;1.30;;;16.70;99.90;;;;;;5052562;28;20505;-68
2023/07/05 03:37:30;;;;;;;2.17;1.53;;;16.70;99.90;;;;;;5052597;28;20512;-69
2023/07/05 03:39:56;;;;;;;1.73;1.00;;;16.60;99.90;;;;;;5052685;28;20202;-69
2023/07/05 03:42:21;;;;;;;1.30;0.90;;;16.60;99.90;;;;;;5052786;28;20253;-68
2023/07/05 03:44:47;;;;;;;1.83;1.53;;;16.60;99.90;;;;;;5052576;28;20171;-69
2023/07/05 03:47:13;;;;;;;1.93;1.50;;;16.50;99.90;;;;;;5052227;28;20277;-69
2023/07/05 03:49:38;;;;;;;1.70;1.20;;;16.40;99.90;;;;;;5052516;28;20277;-68
2023/07/05 03:52:04;;;;;;;2.87;1.60;;;16.40;99.90;;;;;;5052490;28;20229;-69
2023/07/05 03:54:30;;;;;;;2.07;1.30;;;16.30;99.90;;;;;;5052464;28;20171;-69
2023/07/05 03:56:55;;;;;;;1.93;1.37;;;16.30;99.90;;;;;;5052227;28;20426;-69
2023/07/05 03:59:21;;;;;;;1.30;1.10;;;16.20;99.90;;;;;;5052420;28;20170;-69
2023/07/05 04:01:46;;;;;;;2.37;1.40;;;16.20;99.90;;;;;;5052387;28;20174;-69
2023/07/05 04:04:12;;;;;;;2.17;1.63;;;16.10;99.90;;;;;;5052239;28;20198;-69
2023/07/05 04:06:37;;;;;;;7.23;1.20;;;16.10;99.90;;;;;;5051499;28;20182;-69
2023/07/05 04:09:03;;;;;;;1.37;1.10;;;16.10;99.90;;;;;;5052164;28;20190;-69
2023/07/05 04:11:29;;;;;;;5.00;3.07;;;16.10;99.90;;;;;;5052132;28;20170;-68
2023/07/05 04:13:56;;;;;;;2.00;1.50;;;16.00;99.90;;;;;;5052133;28;20405;-68
2023/07/05 04:16:24;;;;;;;2.47;1.33;;;15.90;99.90;;;;;;5051742;28;20397;-69
2023/07/05 04:18:52;;;;;;;2.43;1.70;;;15.80;99.90;;;;;;5050926;28;20393;-68
2023/07/05 04:21:18;;;;;;;3.43;1.90;;;15.80;99.90;;;;;;5051991;28;20898;-69
2023/07/05 04:23:44;;;;;;;1.20;1.00;;;15.80;99.90;;;;;;5052001;28;20397;-68
2023/07/05 04:26:12;;;;;;;3.03;1.60;;;15.70;99.90;;;;;;5051759;28;20909;-69
2023/07/05 04:28:39;;;;;;;1.90;1.40;;;15.60;99.90;;;;;;5051983;28;20289;-68
2023/07/05 04:31:09;;;;;;;2.60;1.50;;;15.60;99.90;;;;;;5051852;28;20444;-67
2023/07/05 04:33:35;;;;;;;2.67;1.60;;;15.40;99.90;;;;;;5052006;28;20909;-69
2023/07/05 04:36:02;;;;;;;2.10;1.50;;;15.30;99.90;;;;;;5051271;28;20405;-68
2023/07/05 04:38:28;;;;;;;2.30;1.60;;;15.40;99.90;;;;;;5051838;28;20488;-68
2023/07/05 04:40:55;;;;;;;5.53;1.23;;;15.40;99.90;;;;;;5051758;28;20441;-68
2023/07/05 04:43:21;;;;;;;2.80;1.50;;;15.50;99.90;;;;;;5051813;28;20404;-68
2023/07/05 04:45:57;;;;;;;1.80;1.60;;;15.50;99.90;;;;;;5051567;28;20496;-68
2023/07/05 04:48:24;;;;;;;2.90;1.70;;;15.60;99.90;;;;;;5051735;28;20196;-69
2023/07/05 04:50:52;;;;;;;3.30;2.20;;;15.70;99.90;;;;;;5051711;28;21001;-68
2023/07/05 04:53:22;;;;;;;1.70;1.60;;;15.70;99.90;;;;;;5051771;28;20432;-68
2023/07/05 04:55:49;;;;;;;2.40;1.60;;;15.70;99.90;;;;;;5052061;28;20432;-69
2023/07/05 04:58:15;;;;;;;4.07;2.00;;;15.80;99.90;;;;;;5053273;28;20425;-71
2023/07/05 05:00:46;;;;;;;1.73;1.63;;;15.80;99.90;;;;;;5052774;28;20512;-69
2023/07/05 05:03:15;;;;;;;3.30;2.20;;;15.80;99.90;;;;;;5052563;28;20496;-69
2023/07/05 05:05:42;;;;;;;2.53;2.00;;;15.80;99.90;;;;;;5052809;28;20767;-69
2023/07/05 05:08:08;;;;;;;2.93;1.97;;;15.80;99.90;;;;;;5052652;28;20477;-69
2023/07/05 05:10:36;;;;;;;4.00;1.87;;;15.90;99.90;;;;;;5052831;28;20484;-69
2023/07/05 05:13:02;;;;;;;3.20;2.00;;;16.00;99.90;;;;;;5052839;28;20159;-69
2023/07/05 05:15:27;;;;;;;3.70;1.97;;;15.90;99.90;;;;;;5052511;28;20462;-69
2023/07/05 05:17:53;;;;;;;3.40;2.03;;;15.90;99.90;;;;;;5053120;28;20183;-71
2023/07/05 05:20:18;;;;;;;3.10;2.47;;;15.90;99.90;;;;;;5052970;28;20194;-68
2023/07/05 05:22:44;;;;;;;4.10;2.23;;;15.90;99.90;;;;;;5052979;28;20572;-69
2023/07/05 05:25:09;;;;;;;2.63;2.10;;;15.90;99.90;;;;;;5052125;28;20210;-69
2023/07/05 05:27:35;;;;;;;2.13;1.50;;;15.90;99.90;;;;;;5052633;28;20187;-67
2023/07/05 05:30:00;;;;;;;4.67;2.43;;;15.90;99.90;;;;;;5052922;28;20194;-69
2023/07/05 05:32:27;;;;;;;2.40;2.20;;;15.90;99.90;;;;;;5051730;28;20174;-69
2023/07/05 05:34:54;;;;;;;4.20;2.50;;;16.10;99.90;;;;;;5051302;28;20246;-69
2023/07/05 05:37:19;;;;;;;2.53;1.97;;;16.10;99.90;;;;;;5051223;28;20864;-69
2023/07/05 05:39:45;;;;;;;4.93;2.50;;;16.20;99.90;;;;;;5051288;28;20488;-69
2023/07/05 05:42:10;;;;;;;5.03;2.33;;;16.40;99.90;;;;;;5051266;28;20202;-68
2023/07/05 05:44:36;;;;;;;4.27;2.70;;;16.30;99.90;;;;;;5051242;28;20253;-67
2023/07/05 05:47:01;;;;;;;2.70;1.83;;;16.30;99.90;;;;;;5051360;28;20547;-68
2023/07/05 05:49:27;;;;;;;6.93;2.40;;;16.30;99.90;;;;;;5054732;28;20197;-67
2023/07/05 05:51:53;;;;;;;4.23;2.13;;;16.30;99.90;;;;;;5054792;28;20163;-68
2023/07/05 05:54:18;;;;;;;5.53;2.70;;;16.50;99.90;;;;;;5054890;28;20170;-70
2023/07/05 05:56:44;;;;;;;3.70;2.50;;;16.70;99.90;;;;;;5054441;28;20186;-68
2023/07/05 05:59:09;;;;;;;3.50;2.10;;;16.80;99.90;;;;;;5054634;28;20710;-68
2023/07/05 06:01:35;;;;;;;3.37;1.97;;;16.70;99.90;;;;;;5054671;28;20171;-68
2023/07/05 06:04:00;;;;;;;4.13;1.97;;;16.50;99.90;;;;;;5054649;28;20213;-67
2023/07/05 06:06:26;;;;;;;1.60;1.40;;;16.40;99.90;;;;;;5054100;28;20179;-68
2023/07/05 06:08:51;;;;;;;2.03;1.60;;;16.30;99.90;;;;;;5054396;28;20845;-68
2023/07/05 06:11:17;;;;;;;2.97;1.67;;;16.20;99.90;;;;;;5054403;28;20189;-68
2023/07/05 06:13:42;;;;;;;2.50;1.90;;;16.10;99.90;;;;;;5054316;28;20163;-67
2023/07/05 06:16:08;;;;;;;2.67;2.17;;;16.30;99.90;;;;;;5055347;28;20242;-68
2023/07/05 06:18:33;;;;;;;2.10;1.73;;;16.40;99.90;;;;;;5057557;28;20193;-67
2023/07/05 06:20:59;;;;;;;3.43;2.00;;;16.50;99.90;;;;;;5057040;28;20167;-69
2023/07/05 06:23:24;;;;;;;17.03;1.87;;;16.70;99.90;;;;;;5057212;28;20530;-68
2023/07/05 06:25:50;;;;;;;2.13;1.93;;;16.80;99.90;;;;;;5055824;28;20524;-68
2023/07/05 06:28:17;;;;;;;2.07;1.67;;;17.00;99.90;;;;;;5056847;28;20186;-68
2023/07/05 06:30:44;;;;;;;2.97;1.90;;;17.30;99.90;;;;;;5057269;28;20445;-71
2023/07/05 06:33:10;;;;;;;2.73;1.63;;;17.40;99.90;;;;;;5057555;28;20401;-69
2023/07/05 06:35:36;;;;;;;2.43;1.53;;;17.30;99.90;;;;;;5056705;28;20886;-69
2023/07/05 06:38:02;;;;;;;2.03;1.43;;;17.10;99.90;;;;;;5055497;28;20467;-69
2023/07/05 06:40:28;;;;;;;2.97;1.53;;;17.00;99.90;;;;;;5054013;28;20191;-68
2023/07/05 06:42:53;;;;;;;2.13;1.57;;;16.90;99.90;;;;;;5053786;28;20167;-69
2023/07/05 06:45:19;;;;;;;3.90;2.27;;;16.80;99.90;;;;;;5053698;28;20178;-69
2023/07/05 06:47:45;;;;;;;1.47;1.27;;;16.70;99.90;;;;;;5056421;28;20198;-69
2023/07/05 06:50:12;;;;;;;3.07;1.80;;;16.70;99.90;;;;;;5055431;28;20191;-71
2023/07/05 06:52:38;;;;;;;3.90;1.57;;;16.70;99.90;;;;;;5055462;28;20488;-71
2023/07/05 06:55:03;;;;;;;3.27;1.57;;;16.70;99.90;;;;;;5056288;28;20402;-69
2023/07/05 06:57:29;;;;;;;1.60;1.30;;;17.30;99.90;;;;;;5056160;28;21013;-68
2023/07/05 06:59:54;;;;;;;6.80;1.90;;;18.20;99.90;;;;;;5054960;28;20173;-70
2023/07/05 07:02:20;;;;;;;1.70;1.40;;;19.00;99.90;;;;;;5053729;28;20182;-70
2023/07/05 07:04:45;;;;;;;3.13;1.37;;;19.50;99.90;;;;;;5053340;28;20648;-70
2023/07/05 07:07:11;;;;;;;1.87;1.37;;;19.70;99.90;;;;;;5052874;28;20232;-71
2023/07/05 07:09:37;;;;;;;3.03;1.60;;;19.50;99.90;;;;;;5053392;28;20236;-70
2023/07/05 07:12:05;;;;;;;2.70;1.30;;;19.30;99.90;;;;;;5053242;28;20155;-70
2023/07/05 07:14:32;;;;;;;3.47;1.40;;;19.30;99.90;;;;;;5053271;28;20551;-70
2023/07/05 07:16:57;;;;;;;1.77;1.50;;;19.20;99.90;;;;;;5052784;28;20436;-71
2023/07/05 07:19:23;;;;;;;2.37;1.50;;;19.20;99.90;;;;;;5053158;28;20401;-69
2023/07/05 07:21:49;;;;;;;4.70;1.50;;;19.20;99.90;;;;;;5052978;28;20167;-68
2023/07/05 07:24:15;;;;;;;2.20;1.40;;;18.80;99.90;;;;;;5053041;28;20504;-70
2023/07/05 07:26:40;;;;;;;1.20;1.03;;;18.70;99.90;;;;;;5052600;28;20692;-68
2023/07/05 07:29:08;;;;;;;4.03;2.10;;;18.70;99.90;;;;;;5052800;28;20405;-69
2023/07/05 07:31:34;;;;;;;1.60;1.30;;;18.50;99.90;;;;;;5052956;28;20186;-68
2023/07/05 07:34:00;;;;;;;1.83;1.50;;;18.20;99.90;;;;;;5052714;28;20891;-69
2023/07/05 07:36:29;;;;;;;1.53;1.17;;;18.20;99.90;;;;;;5052390;28;20162;-69
2023/07/05 07:38:55;;;;;;;2.00;1.33;;;18.10;99.90;;;;;;5052800;28;20467;-68
2023/07/05 07:41:21;;;;;;;7.50;1.40;;;17.90;99.90;;;;;;5052582;28;20406;-70
2023/07/05 07:43:50;;;;;;;3.90;1.40;;;17.80;99.90;;;;;;5052751;28;20467;-69
2023/07/05 07:46:17;;;;;;;2.03;1.30;;;18.00;99.90;;;;;;5052495;28;20155;-70
2023/07/05 07:48:46;;;;;;;2.23;1.60;;;18.00;99.90;;;;;;5051276;28;20465;-69
2023/07/05 07:51:12;;;;;;;1.67;1.10;;;17.80;99.90;;;;;;5052585;28;20448;-68
2023/07/05 07:53:38;;;;;;;2.27;1.00;;;17.70;99.90;;;;;;5052638;28;20924;-68
2023/07/05 07:56:14;;;;;;;2.80;2.10;;;17.60;99.90;;;;;;5052363;28;20159;-69
2023/07/05 07:58:40;;;;;;;1.57;1.13;;;17.40;99.90;;;;;;5052267;28;20252;-67
2023/07/05 08:01:22;;;;;;;1.40;1.10;;;17.40;99.90;;;;;;5052387;28;20808;-68
2023/07/05 08:03:49;;;;;;;1.53;1.40;;;17.50;99.90;;;;;;5052367;28;20410;-68
2023/07/05 08:06:15;;;;;;;3.67;1.33;;;17.90;99.90;;;;;;5051833;28;20433;-68
2023/07/05 08:08:41;;;;;;;1.30;0.97;;;18.70;99.90;;;;;;5052278;28;20436;-69
2023/07/05 08:11:08;;;;;;;2.70;1.30;;;21.30;99.90;;;;;;5051116;28;20453;-69
2023/07/05 08:13:34;;;;;;;3.23;1.80;;;22.90;99.90;;;;;;5052106;28;20189;-69
2023/07/05 08:16:00;;;;;;;3.37;1.63;;;23.80;91.60;;;;;;5051869;28;20393;-69
2023/07/05 08:18:27;;;;;;;2.10;1.10;;;23.50;83.70;;;;;;5052035;28;20418;-71
2023/07/05 08:20:52;;;;;;;1.67;1.10;;;22.90;82.20;;;;;;5052030;28;20416;-70
2023/07/05 08:23:18;;;;;;;2.67;1.50;;;22.80;82.80;;;;;;5051968;28;20401;-69
2023/07/05 08:25:45;;;;;;;3.33;1.20;;;22.80;81.30;;;;;;5051699;28;20209;-70
2023/07/05 08:28:12;;;;;;;1.53;1.43;;;22.70;83.30;;;;;;5051901;28;20671;-70
2023/07/05 08:30:41;;;;;;;4.40;1.43;;;22.30;81.50;;;;;;5051897;28;20523;-70
2023/07/05 08:33:07;;;;;;;6.97;1.53;;;21.90;84.50;;;;;;5051931;28;20501;-69
2023/07/05 08:35:33;;;;;;;1.87;1.10;;;21.60;85.70;;;;;;5051218;28;20488;-68
2023/07/05 08:38:00;;;;;;;4.03;1.40;;;21.10;85.80;;;;;;5031882;28;20233;-70
2023/07/05 08:40:35;;;;;;;2.97;1.40;;;20.70;89.60;;;;;;5031958;28;20407;-69
2023/07/05 08:43:29;;;;;;;2.70;1.23;;;20.40;90.40;;;;;;5032180;28;20455;-69
2023/07/05 08:46:03;;;;;;;2.13;1.23;;;21.10;92.20;;;;;;5030466;28;20433;-70
2023/07/05 08:48:32;;;;;;;4.30;1.40;;;22.20;91.50;;;;;;5031907;28;20449;-69
2023/07/05 08:50:58;;;;;;;1.90;1.10;;;23.40;86.30;;;;;;5031887;28;21001;-69
2023/07/05 08:53:24;;;;;;;1.30;1.00;;;24.70;80.70;;;;;;5032031;28;20403;-69
2023/07/05 08:55:55;;;;;;;3.07;1.00;;;25.40;73.60;;;;;;5031997;28;20405;-69
2023/07/05 08:58:40;;;;;;;6.93;1.30;;;26.90;66.70;;;;;;5032008;28;20188;-70
2023/07/05 09:01:19;;;;;;;2.30;1.47;;;28.90;55.80;;;;;;5032102;28;20891;-69
2023/07/05 09:03:44;;;;;;;4.43;1.63;;;29.30;54.00;;;;;;5031817;28;20402;-70
2023/07/05 09:06:24;;;;;;;1.50;1.30;;;30.10;50.90;;;;;;5031466;28;20398;-70
2023/07/05 09:09:04;;;;;;;4.27;1.33;;;30.50;48.00;;;;;;5031683;28;20176;-70
2023/07/05 09:11:56;;;;;;;3.63;1.20;;;31.50;47.60;;;;;;5031729;28;20413;-68
2023/07/05 09:14:43;;;;;;;9.13;1.40;;;31.60;44.50;;;;;;5021477;28;20446;-70
2023/07/05 09:17:27;;;;;;;2.30;1.50;;;30.80;42.90;;;;;;5031329;28;20761;-71
2023/07/05 09:20:05;;;;;;;3.67;1.17;;;30.70;44.00;;;;;;5032084;28;20398;-69
2023/07/05 09:22:36;;;;;;;2.67;1.20;;;29.90;43.00;;;;;;5034726;28;20922;-71
2023/07/05 09:25:05;;;;;;;3.40;1.33;;;29.00;44.90;;;;;;5035396;28;20405;-70
2023/07/05 09:27:35;;;;;;;8.10;1.30;;;28.20;45.60;;;;;;5035713;28;20949;-69
2023/07/05 09:30:25;;;;;;;4.03;1.73;;;27.60;46.40;;;;;;5036281;28;20458;-70
2023/07/05 09:33:19;;;;;;;3.80;1.53;;;27.30;46.30;;;;;;5035612;28;20401;-71
2023/07/05 09:35:46;;;;;;;4.80;1.27;;;27.60;47.70;;;;;;5034312;28;20499;-70
2023/07/05 09:38:33;;;;;;;3.67;1.30;;;27.30;46.10;;;;;;5035072;28;20414;-70
2023/07/05 09:41:04;;;;;;;4.50;1.17;;;27.60;48.50;;;;;;5052945;28;20467;-70
2023/07/05 09:43:30;;;;;;;4.57;1.60;;;29.10;48.10;;;;;;5054939;28;20401;-70
2023/07/05 09:46:00;;;;;;;3.83;1.33;;;30.40;45.30;;;;;;5054230;28;20467;-70
2023/07/05 09:48:28;;;;;;;2.90;1.37;;;30.50;42.50;;;;;;5054454;28;20433;-70
2023/07/05 09:50:54;;;;;;;3.40;1.50;;;29.90;42.30;;;;;;5054556;28;20456;-69
2023/07/05 09:53:34;;;;;;;5.27;1.73;;;29.50;44.10;;;;;;5054820;28;20523;-71
2023/07/05 09:56:28;;;;;;;5.37;1.60;;;29.80;43.20;;;;;;5055010;28;20163;-71
2023/07/05 09:59:19;;;;;;;2.90;1.23;;;29.10;42.70;;;;;;5055269;28;20463;-68
2023/07/05 10:01:49;;;;;;;8.60;1.80;;;29.00;43.30;;;;;;5055296;28;20398;-70
2023/07/05 10:04:16;;;;;;;2.57;1.70;;;29.50;43.20;;;;;;5055075;28;20401;-70
2023/07/05 10:06:45;;;;;;;5.10;1.70;;;29.20;42.10;;;;;;5054043;28;20433;-69
2023/07/05 10:09:15;;;;;;;3.13;1.53;;;30.00;43.40;;;;;;5054281;28;20819;-70
2023/07/05 10:11:48;;;;;;;12.07;1.80;;;29.80;42.80;;;;;;5054342;28;20402;-69
2023/07/05 10:14:18;;;;;;;3.90;1.50;;;28.20;41.30;;;;;;5054320;28;20402;-70
2023/07/05 10:16:49;;;;;;;2.70;1.50;;;27.70;43.30;;;;;;5053761;28;20432;-70
2023/07/05 10:19:30;;;;;;;6.20;1.90;;;28.10;43.40;;;;;;5054545;28;20405;-69
2023/07/05 10:22:04;;;;;;;1.00;0.90;;;28.00;43.20;;;;;;5054430;28;20728;-70
2023/07/05 10:24:32;;;;;;;3.20;1.50;;;27.90;42.50;;;;;;5054191;28;20401;-70
2023/07/05 10:27:09;;;;;;;3.73;1.70;;;26.40;43.40;;;;;;5053547;28;20516;-69
2023/07/05 10:29:35;;;;;;;1.43;1.23;;;25.60;45.00;;;;;;5053981;28;20540;-69
2023/07/05 10:32:01;;;;;;;7.87;1.73;;;25.50;47.60;;;;;;5053896;28;20409;-70
2023/07/05 10:34:27;;;;;;;2.47;1.60;;;27.60;47.60;;;;;;5053057;28;20397;-69
2023/07/05 10:36:54;;;;;;;8.30;1.20;;;29.60;44.10;;;;;;5053576;28;20270;-69
2023/07/05 10:39:26;;;;;;;2.27;1.93;;;31.00;40.80;;;;;;5053865;28;20401;-69
2023/07/05 10:41:57;;;;;;;2.00;1.47;;;30.40;40.00;;;;;;5053905;28;20389;-69
2023/07/05 10:44:32;;;;;;;3.87;1.47;;;29.50;40.40;;;;;;5053837;28;20480;-68
2023/07/05 10:46:58;;;;;;;3.67;2.00;;;29.90;40.40;;;;;;5053439;28;20789;-68
2023/07/05 10:49:26;;;;;;;3.27;2.17;;;30.30;39.60;;;;;;5054500;28;20452;-70
2023/07/05 10:51:58;;;;;;;3.40;1.53;;;29.00;38.60;;;;;;5054080;28;20394;-69
2023/07/05 10:54:32;;;;;;;5.13;1.93;;;29.80;40.20;;;;;;5054249;28;20404;-71
2023/07/05 10:57:04;;;;;;;2.70;1.37;;;30.70;39.80;;;;;;5053486;28;20567;-69
2023/07/05 10:59:38;;;;;;;6.00;1.87;;;32.10;40.20;;;;;;5053535;28;20412;-70
2023/07/05 11:02:26;;;;;;;6.63;3.10;;;33.00;37.50;;;;;;5053449;28;20544;-69
2023/07/05 11:04:53;;;;;;;3.43;1.60;;;31.70;36.30;;;;;;5053606;28;20463;-70
2023/07/05 11:07:21;;;;;;;1.90;1.70;;;31.50;38.00;;;;;;5053399;28;20530;-69
2023/07/05 11:09:46;;;;;;;4.17;1.73;;;32.10;36.90;;;;;;5053376;28;20445;-71
2023/07/05 11:12:20;;;;;;;2.37;1.43;;;31.70;36.10;;;;;;5053333;28;20412;-69
2023/07/05 11:14:46;;;;;;;1.50;1.20;;;31.40;37.40;;;;;;5053231;28;20178;-69
2023/07/05 11:17:22;;;;;;;2.33;1.50;;;30.70;38.40;;;;;;5052856;28;20440;-70
2023/07/05 11:19:47;;;;;;;5.20;2.20;;;31.10;38.70;;;;;;5053122;28;20936;-69
2023/07/05 11:22:43;;;;;;;1.90;1.80;;;32.40;37.10;;;;;;5053077;28;20402;-70
2023/07/05 11:25:11;;;;;;;5.57;1.90;;;34.70;36.20;;;;;;5052804;28;20171;-70
2023/07/05 11:27:42;;;;;;;2.50;1.50;;;33.60;34.80;;;;;;5052888;28;20425;-71
2023/07/05 11:30:40;;;;;;;7.77;1.40;;;33.70;35.90;;;;;;5052875;28;20449;-70
2023/07/05 11:33:06;;;;;;;4.27;1.70;;;35.20;36.50;;;;;;5052959;28;20416;-70
2023/07/05 11:35:46;;;;;;;2.60;1.60;;;36.20;32.90;;;;;;5052652;28;20398;-72
2023/07/05 11:38:40;;;;;;;3.97;1.67;;;35.70;32.30;;;;;;5052820;28;20215;-71
2023/07/05 11:41:24;;;;;;;19.90;2.47;;;33.40;32.20;;;;;;5052788;28;20404;-70
2023/07/05 11:44:00;;;;;;;1.73;1.30;;;31.30;33.90;;;;;;5052645;28;20803;-70
2023/07/05 11:46:37;;;;;;;7.40;2.00;;;29.30;36.50;;;;;;5052217;28;20407;-72
2023/07/05 11:49:21;;;;;;;6.30;2.10;;;28.00;38.10;;;;;;5052455;28;20847;-68
2023/07/05 11:52:02;;;;;;;1.67;1.10;;;26.50;40.20;;;;;;5052546;28;20410;-70
2023/07/05 11:54:51;;;;;;;2.80;1.60;;;25.70;42.40;;;;;;5052597;28;20910;-70
2023/07/05 11:57:16;;;;;;;3.73;1.53;;;25.40;44.20;;;;;;5052207;28;20489;-69
2023/07/05 11:59:57;;;;;;;3.43;1.90;;;24.60;45.60;;;;;;5052331;28;20405;-69
2023/07/05 12:02:53;;;;;;;1.40;1.30;;;26.00;46.40;;;;;;5052430;28;20163;-68
2023/07/05 12:05:22;;;;;;;4.00;1.80;;;28.30;43.90;;;;;;5052087;28;20484;-69
2023/07/05 12:07:54;;;;;;;5.20;1.83;;;29.50;41.10;;;;;;5051974;28;20528;-70
2023/07/05 12:10:24;;;;;;;2.60;1.70;;;30.10;40.10;;;;;;5052405;28;20488;-71
2023/07/05 12:12:49;;;;;;;2.07;1.50;;;30.10;39.00;;;;;;5052376;28;20397;-69
2023/07/05 12:15:16;;;;;;;4.37;1.57;;;28.60;39.20;;;;;;5052303;28;20393;-71
2023/07/05 12:17:42;;;;;;;2.07;1.50;;;27.30;41.30;;;;;;5052088;28;20189;-71
2023/07/05 12:20:31;;;;;;;3.97;1.50;;;26.30;43.30;;;;;;5052253;28;20436;-68
2023/07/05 12:22:58;;;;;;;2.10;1.50;;;25.20;45.90;;;;;;5052632;28;20902;-70
2023/07/05 12:25:25;;;;;;;2.03;1.43;;;23.50;48.50;;;;;;5052673;28;20407;-69
2023/07/05 12:27:51;;;;;;;3.80;3.17;;;22.90;51.20;;;;;;5051909;28;20422;-69
2023/07/05 12:30:19;;;;;;;8.10;1.70;;;22.20;53.30;;;;;;5051852;28;20636;-70
2023/07/05 12:32:49;;;;;;;2.20;1.60;;;21.70;55.60;;;;;;5051663;28;20401;-70
2023/07/05 12:35:18;;;;;;;7.77;2.10;;;21.20;59.00;;;;;;5051659;28;20436;-70
2023/07/05 12:37:45;;;;;;;16.50;2.43;;;21.10;68.00;;;;;;5051795;28;20421;-68
2023/07/05 12:40:12;;;;;;;10.13;1.77;;;21.70;79.20;;;;;;5051661;28;20496;-69
2023/07/05 12:42:53;;;;;;;3.97;1.63;;;24.40;74.10;;;;;;5051806;28;20405;-70
2023/07/05 12:45:27;;;;;;;2.57;1.80;;;27.00;60.70;;;;;;5050619;28;20767;-69
2023/07/05 12:47:53;;;;;;;3.47;2.23;;;29.10;55.20;;;;;;5051386;28;20437;-68
2023/07/05 12:50:23;;;;;;;2.47;1.77;;;30.10;49.10;;;;;;5051582;28;20812;-70
2023/07/05 12:53:01;;;;;;;3.60;2.00;;;31.10;48.30;;;;;;5051590;28;20409;-70
2023/07/05 12:55:28;;;;;;;2.67;1.80;;;32.20;45.50;;;;;;5051329;28;20437;-69
2023/07/05 12:57:55;;;;;;;3.73;1.67;;;31.70;43.10;;;;;;5055042;28;20432;-69